createdAt,value
2018-12-15T00:00:33.324Z,75.50
2018-12-15T00:03:01.560Z,75.00
2018-12-15T00:05:29.836Z,75.30
2018-12-15T00:07:58.082Z,75.40
2018-12-15T00:10:26.375Z,75.30
2018-12-15T00:12:54.670Z,75.30
2018-12-15T00:15:23.120Z,75.70
2018-12-15T00:17:51.397Z,75.70
2018-12-15T00:20:19.679Z,76.10
2018-12-15T00:22:47.939Z,77.20
2018-12-15T00:25:16.219Z,76.40
2018-12-15T00:27:44.438Z,76.80
2018-12-15T00:30:12.694Z,77.20
2018-12-15T00:32:40.907Z,77.20
2018-12-15T00:35:09.134Z,77.10
2018-12-15T00:37:37.391Z,76.80
2018-12-15T00:40:05.983Z,76.10
2018-12-15T00:42:34.351Z,75.90
2018-12-15T00:45:02.743Z,75.80
2018-12-15T00:47:31.010Z,76.10
2018-12-15T00:49:59.297Z,76.60
2018-12-15T00:52:27.584Z,76.40
2018-12-15T00:54:55.867Z,76.40
2018-12-15T00:57:24.137Z,75.20
2018-12-15T00:59:52.415Z,75.70
2018-12-15T01:02:20.668Z,76.00
2018-12-15T01:04:48.959Z,76.30
2018-12-15T01:07:19.392Z,76.90
2018-12-15T01:09:47.694Z,77.30
2018-12-15T01:12:16.028Z,77.40
2018-12-15T01:14:44.254Z,77.10
2018-12-15T01:17:12.683Z,76.20
2018-12-15T01:19:40.915Z,76.90
2018-12-15T01:22:09.254Z,77.00
2018-12-15T01:24:37.612Z,76.80
2018-12-15T01:27:05.891Z,77.00
2018-12-15T01:29:34.269Z,77.20
2018-12-15T01:32:02.478Z,76.90
2018-12-15T01:34:30.943Z,76.70
2018-12-15T01:36:59.171Z,77.00
2018-12-15T01:39:27.474Z,77.10
2018-12-15T01:41:55.690Z,76.70
2018-12-15T01:44:23.932Z,76.80
2018-12-15T01:46:52.203Z,77.10
2018-12-15T01:49:20.493Z,76.90
2018-12-15T01:51:48.703Z,76.50
2018-12-15T01:54:17.027Z,76.30
2018-12-15T01:56:45.290Z,76.40
2018-12-15T01:59:13.498Z,76.40
2018-12-15T02:01:41.717Z,76.30
2018-12-15T02:04:10.024Z,76.50
2018-12-15T02:06:38.435Z,76.30
2018-12-15T02:09:07.294Z,76.50
2018-12-15T02:11:35.551Z,76.70
2018-12-15T02:14:03.819Z,76.60
2018-12-15T02:16:33.247Z,77.80
2018-12-15T02:19:01.548Z,77.00
2018-12-15T02:21:29.746Z,77.10
2018-12-15T02:23:57.982Z,77.50
2018-12-15T02:26:26.208Z,77.50
2018-12-15T02:28:54.421Z,77.50
2018-12-15T02:31:23.968Z,77.40
2018-12-15T02:33:52.326Z,77.50
2018-12-15T02:36:20.562Z,77.20
2018-12-15T02:38:48.829Z,77.60
2018-12-15T02:41:17.144Z,77.20
2018-12-15T02:43:45.417Z,77.20
2018-12-15T02:46:13.805Z,77.10
2018-12-15T02:48:42.025Z,77.30
2018-12-15T02:51:10.356Z,77.10
2018-12-15T02:53:39.658Z,77.20
2018-12-15T02:56:08.005Z,77.10
2018-12-15T02:58:36.321Z,77.20
2018-12-15T03:01:04.557Z,77.10
2018-12-15T03:03:32.876Z,77.30
2018-12-15T03:06:01.235Z,77.30
2018-12-15T03:08:29.434Z,77.20
2018-12-15T03:10:57.739Z,77.10
2018-12-15T03:13:25.964Z,76.90
2018-12-15T03:15:54.211Z,76.60
2018-12-15T03:18:22.424Z,77.10
2018-12-15T03:21:07.891Z,76.40
2018-12-15T03:23:36.291Z,76.60
2018-12-15T03:26:04.593Z,76.50
2018-12-15T03:28:32.886Z,76.40
2018-12-15T03:31:01.104Z,76.20
2018-12-15T03:33:29.472Z,76.40
2018-12-15T03:35:57.768Z,76.60
2018-12-15T03:38:26.030Z,76.60
2018-12-15T03:40:54.245Z,76.70
2018-12-15T03:43:22.481Z,76.90
2018-12-15T03:45:50.757Z,76.70
2018-12-15T03:48:19.045Z,76.60
2018-12-15T03:50:47.349Z,76.50
2018-12-15T03:53:15.692Z,76.50
2018-12-15T03:55:43.929Z,76.40
2018-12-15T03:58:12.259Z,76.50
2018-12-15T04:00:40.528Z,76.40
2018-12-15T04:03:08.741Z,75.70
2018-12-15T04:05:37.048Z,75.70
2018-12-15T04:08:05.461Z,75.70
2018-12-15T04:10:33.936Z,75.60
2018-12-15T04:13:02.302Z,76.10
2018-12-15T04:15:30.691Z,76.30
2018-12-15T04:18:03.744Z,76.60
2018-12-15T04:20:29.195Z,76.20
2018-12-15T04:22:57.454Z,76.30
2018-12-15T04:25:25.667Z,76.50
2018-12-15T04:27:53.884Z,76.40
2018-12-15T04:30:22.097Z,76.60
2018-12-15T04:32:50.321Z,76.70
2018-12-15T04:35:18.580Z,77.00
2018-12-15T04:37:46.981Z,76.90
2018-12-15T04:40:15.444Z,75.70
2018-12-15T04:42:43.676Z,75.30
2018-12-15T04:45:11.918Z,74.80
2018-12-15T04:47:40.135Z,74.70
2018-12-15T04:50:08.418Z,75.80
2018-12-15T04:52:36.782Z,74.90
2018-12-15T04:55:05.470Z,75.10
2018-12-15T04:57:33.798Z,75.20
2018-12-15T05:00:02.110Z,76.30
2018-12-15T05:02:30.326Z,76.90
2018-12-15T05:04:58.563Z,77.00
2018-12-15T05:07:26.783Z,77.00
2018-12-15T05:09:55.007Z,77.30
2018-12-15T05:12:23.222Z,77.70
2018-12-15T05:14:51.767Z,76.80
2018-12-15T05:17:20.078Z,75.70
2018-12-15T05:19:48.292Z,74.30
2018-12-15T05:22:16.627Z,73.60
2018-12-15T05:24:45.375Z,73.80
2018-12-15T05:29:59.162Z,75.00
2018-12-15T05:32:27.476Z,75.10
2018-12-15T05:34:55.831Z,75.50
2018-12-15T05:37:33.615Z,75.90
2018-12-15T05:40:01.840Z,76.50
2018-12-15T05:42:30.151Z,76.90
2018-12-15T05:44:58.447Z,77.20
2018-12-15T05:47:26.903Z,75.20
2018-12-15T05:49:55.274Z,73.80
2018-12-15T05:52:23.507Z,73.20
2018-12-15T05:54:51.731Z,72.60
2018-12-15T05:57:20.875Z,73.00
2018-12-15T05:59:49.214Z,74.00
2018-12-15T06:02:18.352Z,74.50
2018-12-15T06:04:46.604Z,75.00
2018-12-15T06:07:14.835Z,75.50
2018-12-15T06:09:43.067Z,75.70
2018-12-15T06:12:11.290Z,75.40
2018-12-15T06:14:39.511Z,74.60
2018-12-15T06:17:07.755Z,74.50
2018-12-15T06:19:35.976Z,74.40
2018-12-15T06:22:04.294Z,74.50
2018-12-15T06:24:32.520Z,74.60
2018-12-15T06:27:00.751Z,74.20
2018-12-15T06:29:28.960Z,73.90
2018-12-15T06:31:57.202Z,73.90
2018-12-15T06:34:25.478Z,74.00
2018-12-15T06:36:53.787Z,74.50
2018-12-15T06:39:22.140Z,74.50
2018-12-15T06:41:50.360Z,73.70
2018-12-15T06:44:18.790Z,73.60
2018-12-15T06:46:47.074Z,73.40
2018-12-15T06:49:15.289Z,72.70
2018-12-15T06:51:43.742Z,72.70
2018-12-15T06:54:12.017Z,72.10
2018-12-15T06:56:40.256Z,71.50
2018-12-15T06:59:08.467Z,70.90
2018-12-15T07:01:36.697Z,71.30
2018-12-15T07:04:05.009Z,71.40
2018-12-15T07:06:33.373Z,71.40
2018-12-15T07:09:01.584Z,71.10
2018-12-15T07:11:29.835Z,71.30
2018-12-15T07:13:58.053Z,72.00
2018-12-15T07:16:26.310Z,72.10
2018-12-15T07:18:54.551Z,72.70
2018-12-15T07:21:22.844Z,72.50
2018-12-15T07:23:51.059Z,72.10
2018-12-15T07:26:19.281Z,72.90
2018-12-15T07:28:47.770Z,73.50
2018-12-15T07:31:16.043Z,73.50
2018-12-15T07:33:44.264Z,73.60
2018-12-15T07:36:12.523Z,73.20
2018-12-15T07:38:40.747Z,73.30
2018-12-15T07:41:09.038Z,72.80
2018-12-15T07:43:37.321Z,71.90
2018-12-15T07:46:05.591Z,72.30
2018-12-15T07:48:33.870Z,72.40
2018-12-15T07:51:02.248Z,72.30
2018-12-15T07:53:30.548Z,72.50
2018-12-15T07:55:58.763Z,72.80
2018-12-15T07:58:27.238Z,72.90
2018-12-15T08:00:55.482Z,72.70
2018-12-15T08:03:23.739Z,72.80
2018-12-15T08:05:51.954Z,72.90
2018-12-15T08:08:20.222Z,73.20
2018-12-15T08:10:53.996Z,73.30
2018-12-15T08:16:03.731Z,73.00
2018-12-15T08:18:31.961Z,72.80
2018-12-15T08:21:00.199Z,73.10
2018-12-15T08:23:28.579Z,73.00
2018-12-15T08:25:56.854Z,73.10
2018-12-15T08:28:25.135Z,72.40
2018-12-15T08:30:53.412Z,72.70
2018-12-15T08:33:21.663Z,72.40
2018-12-15T08:35:49.895Z,72.20
2018-12-15T08:38:18.156Z,73.20
2018-12-15T08:40:46.431Z,73.30
2018-12-15T08:43:14.658Z,72.90
2018-12-15T08:45:42.909Z,72.70
2018-12-15T08:48:11.253Z,73.60
2018-12-15T08:50:39.739Z,73.20
2018-12-15T08:53:07.993Z,73.40
2018-12-15T08:55:36.271Z,73.00
2018-12-15T08:58:04.509Z,73.20
2018-12-15T09:00:32.855Z,73.30
2018-12-15T09:03:01.113Z,73.30
2018-12-15T09:05:29.364Z,73.10
2018-12-15T09:07:57.648Z,73.20
2018-12-15T09:10:25.879Z,73.00
2018-12-15T09:12:54.216Z,72.50
2018-12-15T09:15:23.395Z,72.50
2018-12-15T09:17:51.671Z,72.90
2018-12-15T09:20:19.992Z,73.70
2018-12-15T09:22:48.292Z,73.70
2018-12-15T09:25:16.819Z,73.90
2018-12-15T09:27:45.054Z,73.70
2018-12-15T09:30:13.294Z,73.60
2018-12-15T09:32:41.639Z,73.90
2018-12-15T09:35:09.904Z,76.50
2018-12-15T09:37:38.209Z,75.40
2018-12-15T09:40:06.772Z,74.70
2018-12-15T09:42:35.027Z,75.20
2018-12-15T09:45:03.816Z,74.70
2018-12-15T09:47:32.229Z,74.80
2018-12-15T09:50:00.440Z,74.50
2018-12-15T09:52:28.656Z,74.30
2018-12-15T09:54:57.042Z,73.50
2018-12-15T09:57:27.281Z,73.60
2018-12-15T09:59:55.487Z,73.40
2018-12-15T10:02:23.819Z,73.50
2018-12-15T10:04:52.092Z,73.50
2018-12-15T10:07:20.394Z,73.80
2018-12-15T10:09:48.751Z,74.20
2018-12-15T10:12:17.028Z,74.80
2018-12-15T10:14:45.593Z,74.90
2018-12-15T10:17:14.004Z,74.90
2018-12-15T10:19:42.285Z,74.90
2018-12-15T10:22:10.572Z,74.70
2018-12-15T10:24:38.827Z,75.10
2018-12-15T10:27:07.126Z,73.80
2018-12-15T10:29:41.039Z,72.50
2018-12-15T10:32:14.778Z,72.90
2018-12-15T10:34:43.091Z,72.90
2018-12-15T10:37:11.467Z,73.20
2018-12-15T10:39:39.759Z,73.20
2018-12-15T10:42:08.125Z,73.20
2018-12-15T10:44:36.408Z,72.30
2018-12-15T10:47:04.646Z,71.70
2018-12-15T10:49:32.904Z,72.30
2018-12-15T10:52:01.237Z,71.80
2018-12-15T10:54:29.754Z,72.80
2018-12-15T10:56:58.213Z,73.50
2018-12-15T10:59:26.497Z,73.20
2018-12-15T11:01:54.719Z,72.60
2018-12-15T11:04:23.015Z,72.20
2018-12-15T11:06:51.292Z,72.40
2018-12-15T11:09:19.598Z,72.10
2018-12-15T11:11:47.891Z,70.90
2018-12-15T11:14:16.106Z,69.90
2018-12-15T11:16:44.320Z,69.90
2018-12-15T11:19:12.596Z,70.40
2018-12-15T11:21:40.822Z,70.10
2018-12-15T11:24:09.120Z,70.60
2018-12-15T11:26:37.396Z,71.50
2018-12-15T11:29:05.690Z,70.10
2018-12-15T11:31:33.948Z,69.90
2018-12-15T11:34:02.233Z,70.00
2018-12-15T11:36:30.509Z,69.50
2018-12-15T11:38:58.740Z,69.90
2018-12-15T11:41:27.257Z,70.20
2018-12-15T11:43:55.474Z,70.40
2018-12-15T11:46:23.814Z,70.30
2018-12-15T11:48:52.049Z,70.20
2018-12-15T11:51:20.295Z,70.50
2018-12-15T11:53:48.510Z,70.90
2018-12-15T11:56:18.663Z,70.50
2018-12-15T11:58:46.893Z,70.80
2018-12-15T12:01:15.115Z,69.90
2018-12-15T12:03:43.364Z,69.70
2018-12-15T12:06:11.586Z,69.00
2018-12-15T12:08:39.839Z,69.20
2018-12-15T12:11:08.052Z,69.70
2018-12-15T12:13:36.317Z,69.50
2018-12-15T12:16:04.603Z,70.20
2018-12-15T12:18:32.851Z,69.40
2018-12-15T12:21:01.093Z,69.20
2018-12-15T12:23:29.296Z,69.60
2018-12-15T12:25:57.607Z,69.80
2018-12-15T12:28:25.946Z,69.80
2018-12-15T12:30:54.222Z,69.00
2018-12-15T12:33:22.463Z,69.10
2018-12-15T12:35:50.674Z,69.20
2018-12-15T12:38:18.891Z,70.00
2018-12-15T12:40:47.104Z,69.60
2018-12-15T12:43:15.328Z,69.20
2018-12-15T12:45:43.583Z,69.20
2018-12-15T12:48:11.820Z,68.90
2018-12-15T12:50:40.092Z,68.90
2018-12-15T12:53:08.356Z,68.90
2018-12-15T12:55:36.569Z,68.80
2018-12-15T12:58:04.818Z,69.70
2018-12-15T13:00:33.040Z,69.70
2018-12-15T13:03:01.253Z,70.50
2018-12-15T13:05:29.669Z,69.40
2018-12-15T13:07:57.927Z,69.40
2018-12-15T13:10:26.192Z,69.00
2018-12-15T13:12:54.401Z,69.20
2018-12-15T13:15:22.682Z,69.20
2018-12-15T13:17:51.169Z,69.60
2018-12-15T13:20:19.411Z,69.80
2018-12-15T13:22:47.644Z,69.20
2018-12-15T13:25:15.920Z,69.90
2018-12-15T13:27:44.149Z,68.70
2018-12-15T13:30:12.429Z,68.70
2018-12-15T13:32:40.710Z,69.00
2018-12-15T13:35:09.101Z,69.00
2018-12-15T13:37:37.465Z,69.20
2018-12-15T13:40:06.870Z,68.40
2018-12-15T13:42:35.124Z,68.80
2018-12-15T13:45:03.847Z,68.70
2018-12-15T13:47:32.116Z,69.40
2018-12-15T13:50:00.365Z,69.70
2018-12-15T13:52:28.591Z,70.00
2018-12-15T13:54:56.904Z,69.80
2018-12-15T13:57:25.131Z,69.20
2018-12-15T13:59:53.347Z,69.20
2018-12-15T14:02:21.597Z,69.30
2018-12-15T14:04:49.944Z,69.50
2018-12-15T14:07:18.164Z,69.40
2018-12-15T14:09:46.412Z,69.10
2018-12-15T14:12:14.698Z,69.60
2018-12-15T14:14:42.991Z,69.70
2018-12-15T14:17:11.275Z,69.90
2018-12-15T14:19:39.528Z,69.90
2018-12-15T14:22:07.820Z,70.50
2018-12-15T14:24:36.078Z,70.50
2018-12-15T14:27:04.369Z,70.40
2018-12-15T14:29:32.601Z,70.70
2018-12-15T14:32:00.872Z,70.90
2018-12-15T14:34:29.162Z,70.50
2018-12-15T14:36:57.414Z,70.70
2018-12-15T14:39:25.686Z,70.60
2018-12-15T14:41:53.897Z,70.60
2018-12-15T14:44:22.232Z,70.50
2018-12-15T14:46:50.449Z,70.70
2018-12-15T14:49:18.691Z,71.30
2018-12-15T14:51:46.997Z,70.80
2018-12-15T14:54:15.293Z,70.80
2018-12-15T14:56:43.594Z,70.60
2018-12-15T14:59:11.810Z,71.10
2018-12-15T15:01:40.113Z,70.80
2018-12-15T15:04:08.359Z,70.90
2018-12-15T15:06:36.659Z,71.00
2018-12-15T15:09:07.411Z,71.60
2018-12-15T15:11:35.746Z,71.60
2018-12-15T15:14:04.038Z,71.60
2018-12-15T15:16:32.235Z,72.00
2018-12-15T15:19:00.579Z,71.50
2018-12-15T15:21:28.847Z,72.10
2018-12-15T15:23:57.073Z,71.90
2018-12-15T15:26:25.320Z,72.30
2018-12-15T15:28:53.592Z,72.70
2018-12-15T15:31:21.826Z,72.10
2018-12-15T15:33:50.150Z,71.60
2018-12-15T15:36:18.519Z,71.60
2018-12-15T15:38:46.787Z,72.00
2018-12-15T15:41:15.039Z,71.80
2018-12-15T15:43:43.342Z,71.20
2018-12-15T15:46:11.611Z,71.50
2018-12-15T15:48:39.852Z,71.50
2018-12-15T15:51:08.059Z,75.20
2018-12-15T15:53:36.316Z,72.30
2018-12-15T15:56:04.619Z,71.50
2018-12-15T15:58:32.855Z,71.40
2018-12-15T16:01:01.111Z,71.10
2018-12-15T16:03:29.459Z,70.30
2018-12-15T16:05:57.847Z,69.90
2018-12-15T16:08:26.107Z,70.00
2018-12-15T16:10:54.356Z,70.60
2018-12-15T16:13:22.563Z,70.10
2018-12-15T16:15:50.930Z,70.00
2018-12-15T16:18:19.225Z,70.00
2018-12-15T16:20:47.712Z,69.60
2018-12-15T16:23:15.913Z,70.20
2018-12-15T16:25:44.356Z,70.70
2018-12-15T16:28:12.613Z,70.30
2018-12-15T16:30:40.859Z,70.30
2018-12-15T16:33:09.267Z,70.40
2018-12-15T16:35:37.541Z,70.20
2018-12-15T16:38:05.858Z,70.00
2018-12-15T16:40:34.158Z,70.40
2018-12-15T16:43:02.408Z,70.50
2018-12-15T16:45:30.626Z,70.80
2018-12-15T16:47:58.867Z,70.80
2018-12-15T16:50:27.078Z,71.00
2018-12-15T16:52:55.358Z,70.90
2018-12-15T16:55:23.812Z,70.70
2018-12-15T16:57:52.166Z,70.60
2018-12-15T17:00:20.444Z,70.10
2018-12-15T17:02:48.710Z,69.90
2018-12-15T17:05:17.050Z,70.00
2018-12-15T17:07:45.281Z,70.20
2018-12-15T17:10:13.660Z,69.90
2018-12-15T17:12:42.001Z,69.80
2018-12-15T17:15:10.443Z,71.20
2018-12-15T17:17:38.683Z,70.50
2018-12-15T17:20:10.010Z,70.00
2018-12-15T17:22:38.267Z,70.00
2018-12-15T17:25:07.575Z,69.30
2018-12-15T17:27:35.880Z,69.60
2018-12-15T17:30:07.222Z,69.60
2018-12-15T17:32:35.421Z,69.20
2018-12-15T17:35:05.089Z,69.20
2018-12-15T17:37:33.383Z,69.00
2018-12-15T17:40:01.653Z,69.00
2018-12-15T17:42:30.051Z,68.80
2018-12-15T17:44:58.260Z,68.20
2018-12-15T17:47:26.563Z,68.30
2018-12-15T17:49:54.782Z,68.10
2018-12-15T17:52:23.041Z,68.50
2018-12-15T17:54:51.335Z,67.90
2018-12-15T17:57:19.597Z,67.30
2018-12-15T17:59:47.815Z,67.60
2018-12-15T18:02:16.104Z,67.80
2018-12-15T18:04:44.416Z,67.30
2018-12-15T18:07:12.655Z,67.60
2018-12-15T18:09:40.872Z,67.60
2018-12-15T18:12:09.168Z,67.80
2018-12-15T18:14:37.516Z,67.40
2018-12-15T18:17:05.895Z,67.10
2018-12-15T18:19:34.321Z,66.70
2018-12-15T18:22:02.607Z,66.70
2018-12-15T18:24:30.936Z,66.90
2018-12-15T18:26:59.248Z,68.10
2018-12-15T18:29:27.528Z,67.00
2018-12-15T18:31:55.785Z,67.20
2018-12-15T18:34:24.014Z,66.50
2018-12-15T18:36:52.313Z,67.20
2018-12-15T18:39:20.529Z,66.80
2018-12-15T18:41:48.973Z,66.80
2018-12-15T18:44:17.364Z,67.40
2018-12-15T18:46:45.726Z,67.20
2018-12-15T18:49:13.991Z,67.50
2018-12-15T18:51:42.255Z,67.10
2018-12-15T18:54:10.485Z,66.40
2018-12-15T18:56:38.881Z,66.60
2018-12-15T18:59:07.220Z,67.00
2018-12-15T19:01:35.484Z,66.90
2018-12-15T19:04:03.765Z,66.30
2018-12-15T19:06:32.099Z,66.50
2018-12-15T19:09:04.143Z,66.40
2018-12-15T19:11:30.781Z,66.50
2018-12-15T19:13:59.047Z,66.50
2018-12-15T19:16:27.361Z,66.60
2018-12-15T19:18:55.585Z,66.60
2018-12-15T19:21:23.887Z,66.50
2018-12-15T19:23:52.333Z,66.50
2018-12-15T19:26:20.616Z,66.90
2018-12-15T19:28:48.966Z,67.10
2018-12-15T19:31:17.253Z,67.30
2018-12-15T19:33:45.524Z,67.90
2018-12-15T19:36:13.839Z,67.00
2018-12-15T19:38:42.194Z,67.20
2018-12-15T19:41:10.563Z,67.60
2018-12-15T19:43:38.944Z,67.50
2018-12-15T19:46:07.200Z,67.70
2018-12-15T19:48:35.501Z,68.10
2018-12-15T19:51:04.005Z,68.20
2018-12-15T19:53:32.223Z,68.10
2018-12-15T19:56:00.459Z,68.40
2018-12-15T19:58:28.798Z,68.80
2018-12-15T20:00:57.116Z,69.20
2018-12-15T20:03:25.535Z,68.70
2018-12-15T20:05:53.841Z,68.80
2018-12-15T20:08:22.219Z,68.90
2018-12-15T20:10:50.480Z,69.00
2018-12-15T20:13:18.708Z,69.10
2018-12-15T20:15:46.925Z,69.20
2018-12-15T20:18:15.187Z,69.20
2018-12-15T20:20:43.414Z,69.60
2018-12-15T20:23:11.674Z,69.70
2018-12-15T20:25:39.907Z,70.00
2018-12-15T20:28:08.195Z,70.10
2018-12-15T20:30:36.513Z,70.10
2018-12-15T20:33:04.930Z,70.40
2018-12-15T20:35:33.181Z,70.60
2018-12-15T20:38:01.594Z,70.60
2018-12-15T20:40:29.847Z,70.90
2018-12-15T20:42:58.275Z,71.20
2018-12-15T20:45:26.524Z,72.60
2018-12-15T20:47:54.907Z,72.30
2018-12-15T20:50:23.188Z,71.70
2018-12-15T20:52:51.474Z,71.80
2018-12-15T20:55:19.794Z,71.80
2018-12-15T20:57:48.339Z,72.20
2018-12-15T21:00:16.559Z,72.00
2018-12-15T21:02:44.994Z,72.30
2018-12-15T21:05:13.385Z,72.60
2018-12-15T21:07:41.754Z,72.70
2018-12-15T21:10:10.145Z,72.90
2018-12-15T21:12:38.530Z,73.20
2018-12-15T21:17:56.378Z,73.60
2018-12-15T21:20:24.613Z,73.80
2018-12-15T21:22:52.903Z,74.00
2018-12-15T21:25:21.214Z,74.20
2018-12-15T21:27:49.462Z,74.40
2018-12-15T21:30:17.764Z,74.40
2018-12-15T21:32:46.079Z,74.50
2018-12-15T21:35:14.444Z,74.50
2018-12-15T21:37:42.829Z,74.80
2018-12-15T21:40:11.140Z,74.50
2018-12-15T21:42:39.410Z,75.00
2018-12-15T21:45:07.847Z,75.30
2018-12-15T21:47:36.115Z,75.70
2018-12-15T21:50:05.568Z,76.20
2018-12-15T21:52:33.871Z,75.90
2018-12-15T21:55:02.268Z,76.20
2018-12-15T21:57:30.593Z,76.20
2018-12-15T22:00:04.238Z,76.40
2018-12-15T22:02:32.499Z,76.60
2018-12-15T22:05:00.769Z,76.90
2018-12-15T22:07:29.158Z,76.70
2018-12-15T22:09:57.489Z,76.10
2018-12-15T22:12:25.735Z,75.70
2018-12-15T22:14:54.026Z,76.20
2018-12-15T22:17:22.499Z,76.40
2018-12-15T22:19:50.905Z,76.00
2018-12-15T22:22:19.323Z,76.00
2018-12-15T22:24:47.830Z,76.10
2018-12-15T22:27:16.102Z,75.90
2018-12-15T22:29:44.348Z,76.30
2018-12-15T22:32:12.637Z,77.00
2018-12-15T22:34:41.032Z,76.90
2018-12-15T22:37:09.294Z,76.60
2018-12-15T22:39:37.780Z,76.40
2018-12-15T22:42:06.026Z,76.10
2018-12-15T22:44:34.339Z,75.90
2018-12-15T22:47:02.723Z,76.00
2018-12-15T22:49:31.020Z,76.60
2018-12-15T22:51:59.257Z,76.60
2018-12-15T22:54:27.483Z,76.80
2018-12-15T22:56:55.762Z,76.60
2018-12-15T22:59:23.999Z,76.80
2018-12-15T23:01:52.253Z,77.00
2018-12-15T23:04:20.591Z,77.00
2018-12-15T23:06:49.004Z,76.90
2018-12-15T23:09:17.441Z,76.60
2018-12-15T23:11:45.671Z,76.20
2018-12-15T23:14:13.952Z,76.00
2018-12-15T23:16:42.734Z,76.10
2018-12-15T23:19:12.034Z,76.60
2018-12-15T23:21:40.436Z,76.90
2018-12-15T23:24:08.696Z,76.80
2018-12-15T23:26:37.084Z,76.60
2018-12-15T23:29:05.561Z,76.10
2018-12-15T23:31:33.927Z,76.10
2018-12-15T23:34:02.203Z,76.10
2018-12-15T23:36:30.437Z,76.10
2018-12-15T23:39:01.918Z,75.70
2018-12-15T23:41:30.307Z,75.40
2018-12-15T23:43:58.593Z,74.90
2018-12-15T23:46:26.930Z,75.00
2018-12-15T23:48:55.156Z,75.70
2018-12-15T23:51:23.432Z,76.00
2018-12-15T23:53:51.903Z,76.30
2018-12-15T23:56:20.173Z,76.30
2018-12-15T23:58:48.428Z,76.30
